createdAt,value
2019-05-30T00:01:44.693Z,7.95
2019-05-30T00:03:52.242Z,7.74
2019-05-30T00:12:47.976Z,7.60
2019-05-30T00:15:01.292Z,7.34
2019-05-30T00:17:08.937Z,7.58
2019-05-30T00:19:16.533Z,7.38
2019-05-30T00:21:24.201Z,7.30
2019-05-30T00:23:31.958Z,7.31
2019-05-30T00:25:39.821Z,7.34
2019-05-30T00:27:47.650Z,7.41
2019-05-30T00:29:55.286Z,7.39
2019-05-30T00:32:03.964Z,7.47
2019-05-30T00:34:12.472Z,7.42
2019-05-30T00:36:20.389Z,7.60
2019-05-30T00:38:27.982Z,7.47
2019-05-30T00:40:35.532Z,7.44
2019-05-30T00:42:43.182Z,7.54
2019-05-30T00:44:50.869Z,7.70
2019-05-30T00:46:58.467Z,7.76
2019-05-30T00:49:06.955Z,7.74
2019-05-30T00:51:14.304Z,7.59
2019-05-30T00:53:21.698Z,7.53
2019-05-30T00:55:29.147Z,7.51
2019-05-30T00:57:36.541Z,7.40
2019-05-30T00:59:43.955Z,7.26
2019-05-30T01:01:51.439Z,7.17
2019-05-30T01:03:59.006Z,7.11
2019-05-30T01:06:07.273Z,7.03
2019-05-30T01:08:14.839Z,7.06
2019-05-30T01:10:22.317Z,6.93
2019-05-30T01:12:29.827Z,6.84
2019-05-30T01:14:37.196Z,6.96
2019-05-30T01:16:44.771Z,7.18
2019-05-30T01:18:52.189Z,7.36
2019-05-30T01:20:59.616Z,7.25
2019-05-30T01:23:07.509Z,7.38
2019-05-30T01:25:16.585Z,7.51
2019-05-30T01:27:24.050Z,7.45
2019-05-30T01:29:31.543Z,7.56
2019-05-30T01:31:38.939Z,7.54
2019-05-30T01:33:46.279Z,7.58
2019-05-30T01:35:53.679Z,7.49
2019-05-30T01:38:01.844Z,7.52
2019-05-30T01:40:10.062Z,7.60
2019-05-30T01:42:17.522Z,7.54
2019-05-30T01:44:24.973Z,7.58
2019-05-30T01:46:32.966Z,7.68
2019-05-30T01:48:40.326Z,7.67
2019-05-30T01:50:47.795Z,7.69
2019-05-30T01:52:55.284Z,7.70
2019-05-30T01:55:02.829Z,7.60
2019-05-30T01:57:10.594Z,7.69
2019-05-30T01:59:18.012Z,7.75
2019-05-30T02:01:25.856Z,7.58
2019-05-30T02:03:33.516Z,7.41
2019-05-30T02:05:41.206Z,7.46
2019-05-30T02:07:48.584Z,7.36
2019-05-30T02:09:56.028Z,7.27
2019-05-30T02:12:03.698Z,7.26
2019-05-30T02:14:11.175Z,7.24
2019-05-30T02:16:18.731Z,6.99
2019-05-30T02:18:26.048Z,6.84
2019-05-30T02:20:33.426Z,6.71
2019-05-30T02:22:40.882Z,6.69
2019-05-30T02:24:48.324Z,6.56
2019-05-30T02:26:55.730Z,6.55
2019-05-30T02:29:04.178Z,6.51
2019-05-30T02:31:12.405Z,6.53
2019-05-30T02:33:19.965Z,6.31
2019-05-30T02:35:27.469Z,6.36
2019-05-30T02:37:34.925Z,6.37
2019-05-30T02:39:42.339Z,6.25
2019-05-30T02:41:49.703Z,6.30
2019-05-30T02:43:57.088Z,6.31
2019-05-30T02:46:06.371Z,6.16
2019-05-30T02:48:14.489Z,6.14
2019-05-30T02:50:22.192Z,6.09
2019-05-30T02:52:29.664Z,6.12
2019-05-30T02:54:37.114Z,6.06
2019-05-30T02:56:44.489Z,5.93
2019-05-30T02:58:51.882Z,5.91
2019-05-30T03:00:59.338Z,6.05
2019-05-30T03:03:09.286Z,5.97
2019-05-30T03:05:17.150Z,5.90
2019-05-30T03:07:24.565Z,5.87
2019-05-30T03:09:32.173Z,5.90
2019-05-30T03:11:39.547Z,5.93
2019-05-30T03:13:47.555Z,6.01
2019-05-30T03:15:55.152Z,6.11
2019-05-30T03:18:04.653Z,6.13
2019-05-30T03:20:21.958Z,6.11
2019-05-30T03:22:22.229Z,6.17
2019-05-30T03:24:29.841Z,6.10
2019-05-30T03:26:37.355Z,6.16
2019-05-30T03:28:44.836Z,6.23
2019-05-30T03:30:52.453Z,6.18
2019-05-30T03:33:06.828Z,6.11
2019-05-30T03:35:21.604Z,6.14
2019-05-30T03:37:28.690Z,6.06
2019-05-30T03:39:28.614Z,6.16
2019-05-30T03:41:36.059Z,6.14
2019-05-30T03:43:43.566Z,6.15
2019-05-30T03:45:51.667Z,6.13
2019-05-30T03:48:06.540Z,6.14
2019-05-30T03:50:18.004Z,6.25
2019-05-30T03:52:27.633Z,6.24
2019-05-30T03:54:36.602Z,6.35
2019-05-30T03:56:50.726Z,6.35
2019-05-30T03:59:32.294Z,6.36
2019-05-30T04:01:57.467Z,6.45
2019-05-30T04:04:19.147Z,6.49
2019-05-30T04:06:33.704Z,6.55
2019-05-30T04:08:44.770Z,6.59
2019-05-30T04:10:58.683Z,6.71
2019-05-30T04:13:46.281Z,6.72
2019-05-30T04:15:53.785Z,6.74
2019-05-30T04:18:01.184Z,6.85
2019-05-30T04:20:09.854Z,6.89
2019-05-30T04:22:19.593Z,7.03
2019-05-30T04:24:28.223Z,7.09
2019-05-30T04:26:35.601Z,7.38
2019-05-30T04:28:43.017Z,7.49
2019-05-30T04:30:50.398Z,7.57
2019-05-30T04:33:16.231Z,7.61
2019-05-30T04:35:08.045Z,7.67
2019-05-30T04:37:17.195Z,7.60
2019-05-30T04:39:24.805Z,7.65
2019-05-30T04:41:32.273Z,7.73
2019-05-30T04:43:39.688Z,7.86
2019-05-30T04:45:47.135Z,7.92
2019-05-30T04:47:54.535Z,7.92
2019-05-30T04:50:02.214Z,7.92
2019-05-30T04:52:13.931Z,8.17
2019-05-30T04:54:19.657Z,8.16
2019-05-30T04:56:28.276Z,8.19
2019-05-30T04:58:41.643Z,8.26
2019-05-30T05:00:45.819Z,8.23
2019-05-30T05:02:54.931Z,8.43
2019-05-30T05:05:02.858Z,8.50
2019-05-30T05:07:11.503Z,8.69
2019-05-30T05:09:20.300Z,8.75
2019-05-30T05:11:28.069Z,8.80
2019-05-30T05:13:35.665Z,8.82
2019-05-30T05:15:43.274Z,8.91
2019-05-30T05:17:50.968Z,8.93
2019-05-30T05:19:58.565Z,8.92
2019-05-30T05:22:06.055Z,8.91
2019-05-30T05:24:13.509Z,9.02
2019-05-30T05:26:21.631Z,9.06
2019-05-30T05:28:29.217Z,9.08
2019-05-30T05:30:37.012Z,9.15
2019-05-30T05:32:44.946Z,9.13
2019-05-30T05:34:52.594Z,9.25
2019-05-30T05:37:00.154Z,9.23
2019-05-30T05:39:09.211Z,9.29
2019-05-30T05:41:18.165Z,9.38
2019-05-30T05:43:25.988Z,9.40
2019-05-30T05:45:33.887Z,9.53
2019-05-30T05:47:42.296Z,9.50
2019-05-30T05:49:49.913Z,9.54
2019-05-30T05:51:57.410Z,9.50
2019-05-30T05:54:05.553Z,9.69
2019-05-30T05:56:12.983Z,9.69
2019-05-30T05:58:21.142Z,9.79
2019-05-30T06:00:29.609Z,9.83
2019-05-30T06:02:37.423Z,9.79
2019-05-30T06:04:45.154Z,9.91
2019-05-30T06:06:52.897Z,9.93
2019-05-30T06:09:00.626Z,9.99
2019-05-30T06:11:08.486Z,10.03
2019-05-30T06:13:16.617Z,10.09
2019-05-30T06:15:24.984Z,10.09
2019-05-30T06:17:32.635Z,10.12
2019-05-30T06:19:46.364Z,10.20
2019-05-30T06:21:54.008Z,10.16
2019-05-30T06:23:58.551Z,10.39
2019-05-30T06:26:06.830Z,10.41
2019-05-30T06:28:14.278Z,10.43
2019-05-30T06:30:22.616Z,10.61
2019-05-30T06:32:30.340Z,10.76
2019-05-30T06:34:39.637Z,10.73
2019-05-30T06:36:46.917Z,10.81
2019-05-30T06:38:54.372Z,10.89
2019-05-30T06:41:01.855Z,10.94
2019-05-30T06:43:09.207Z,10.87
2019-05-30T06:45:16.857Z,10.94
2019-05-30T06:47:24.404Z,10.98
2019-05-30T06:49:31.907Z,11.04
2019-05-30T06:51:39.318Z,11.11
2019-05-30T06:53:46.839Z,11.07
2019-05-30T06:55:54.355Z,11.07
2019-05-30T06:58:01.798Z,11.15
2019-05-30T07:00:10.484Z,11.17
2019-05-30T07:02:18.134Z,11.28
2019-05-30T07:04:27.373Z,11.31
2019-05-30T07:06:35.478Z,11.32
2019-05-30T07:08:43.148Z,11.40
2019-05-30T07:10:51.478Z,11.41
2019-05-30T07:12:58.882Z,11.49
2019-05-30T07:15:07.927Z,11.51
2019-05-30T07:17:15.332Z,11.59
2019-05-30T07:19:23.347Z,11.64
2019-05-30T07:21:31.769Z,11.72
2019-05-30T07:23:39.913Z,11.73
2019-05-30T07:25:47.629Z,11.82
2019-05-30T07:27:54.956Z,11.84
2019-05-30T07:30:02.383Z,11.97
2019-05-30T07:32:13.314Z,12.08
2019-05-30T07:34:19.784Z,11.96
2019-05-30T07:36:28.213Z,11.99
2019-05-30T07:38:35.705Z,12.06
2019-05-30T07:40:43.514Z,12.15
2019-05-30T07:42:50.986Z,12.21
2019-05-30T07:44:58.488Z,12.21
2019-05-30T07:47:06.076Z,12.29
2019-05-30T07:49:13.499Z,12.44
2019-05-30T07:51:24.328Z,12.65
2019-05-30T07:53:30.694Z,12.47
2019-05-30T07:55:39.112Z,12.49
2019-05-30T07:57:46.854Z,12.69
2019-05-30T07:59:54.326Z,12.62
2019-05-30T08:02:01.947Z,12.59
2019-05-30T08:04:09.423Z,12.70
2019-05-30T08:06:16.947Z,12.74
2019-05-30T08:08:24.463Z,12.73
2019-05-30T08:10:32.088Z,12.84
2019-05-30T08:12:39.679Z,13.06
2019-05-30T08:14:47.144Z,13.05
2019-05-30T08:16:55.487Z,13.23
2019-05-30T08:19:03.338Z,13.19
2019-05-30T08:21:10.937Z,13.32
2019-05-30T08:23:18.366Z,13.35
2019-05-30T08:25:25.825Z,13.50
2019-05-30T08:27:34.331Z,13.47
2019-05-30T08:29:41.783Z,13.43
2019-05-30T08:31:49.795Z,13.55
2019-05-30T08:33:57.324Z,13.51
2019-05-30T08:36:06.000Z,13.63
2019-05-30T08:38:13.603Z,13.78
2019-05-30T08:40:21.455Z,13.78
2019-05-30T08:42:29.519Z,13.88
2019-05-30T08:44:38.013Z,13.90
2019-05-30T08:46:45.633Z,13.79
2019-05-30T08:48:53.181Z,13.84
2019-05-30T08:51:00.641Z,13.86
2019-05-30T08:53:08.217Z,14.23
2019-05-30T08:55:16.753Z,14.07
2019-05-30T08:57:24.283Z,14.00
2019-05-30T08:59:32.371Z,14.06
2019-05-30T09:01:40.565Z,14.18
2019-05-30T09:03:49.247Z,14.29
2019-05-30T09:06:03.520Z,14.24
2019-05-30T09:08:06.128Z,14.22
2019-05-30T09:10:13.741Z,14.32
2019-05-30T09:12:21.312Z,14.45
2019-05-30T09:14:28.814Z,14.43
2019-05-30T09:16:36.371Z,14.62
2019-05-30T09:18:45.183Z,14.48
2019-05-30T09:20:52.814Z,14.43
2019-05-30T09:23:00.243Z,14.37
2019-05-30T09:25:09.578Z,14.42
2019-05-30T09:27:17.098Z,14.67
2019-05-30T09:29:24.816Z,14.74
2019-05-30T09:31:32.990Z,14.65
2019-05-30T09:33:40.960Z,14.73
2019-05-30T09:35:49.063Z,14.80
2019-05-30T09:37:56.596Z,14.84
2019-05-30T09:40:04.772Z,14.93
2019-05-30T09:42:12.565Z,15.05
2019-05-30T09:44:20.281Z,15.04
2019-05-30T09:46:27.851Z,15.03
2019-05-30T09:48:36.027Z,15.25
2019-05-30T09:50:45.121Z,15.18
2019-05-30T09:52:52.786Z,15.21
2019-05-30T09:55:00.271Z,15.37
2019-05-30T09:57:07.759Z,15.58
2019-05-30T09:59:15.545Z,15.48
2019-05-30T10:01:23.270Z,15.43
2019-05-30T10:03:30.869Z,15.53
2019-05-30T10:05:38.453Z,15.50
2019-05-30T10:07:47.437Z,15.55
2019-05-30T10:09:55.438Z,15.48
2019-05-30T10:12:03.298Z,15.43
2019-05-30T10:14:11.237Z,15.69
2019-05-30T10:16:18.930Z,15.66
2019-05-30T10:18:26.424Z,15.82
2019-05-30T10:20:34.050Z,15.94
2019-05-30T10:22:41.594Z,15.72
2019-05-30T10:24:49.139Z,15.84
2019-05-30T10:26:57.371Z,15.85
2019-05-30T10:29:05.032Z,15.96
2019-05-30T10:31:12.582Z,15.96
2019-05-30T10:33:20.369Z,15.77
2019-05-30T10:35:29.939Z,15.91
2019-05-30T10:37:37.283Z,15.95
2019-05-30T10:39:46.001Z,16.12
2019-05-30T10:41:54.023Z,16.06
2019-05-30T10:44:01.522Z,16.09
2019-05-30T10:46:08.951Z,16.43
2019-05-30T10:48:16.449Z,16.78
2019-05-30T10:50:24.535Z,16.41
2019-05-30T10:52:31.977Z,16.39
2019-05-30T10:54:39.413Z,16.36
2019-05-30T10:56:48.393Z,16.47
2019-05-30T10:58:57.232Z,16.47
2019-05-30T11:01:05.217Z,16.40
2019-05-30T11:03:12.788Z,16.40
2019-05-30T11:05:21.994Z,16.56
2019-05-30T11:08:01.971Z,16.51
2019-05-30T11:10:11.798Z,16.70
2019-05-30T11:12:19.321Z,16.66
2019-05-30T11:14:26.827Z,16.66
2019-05-30T11:16:34.370Z,16.84
2019-05-30T11:18:41.877Z,17.01
2019-05-30T11:20:49.969Z,17.07
2019-05-30T11:22:58.469Z,17.22
2019-05-30T11:25:06.531Z,17.19
2019-05-30T11:27:13.995Z,17.02
2019-05-30T11:29:21.418Z,17.12
2019-05-30T11:31:28.967Z,16.99
2019-05-30T11:33:36.488Z,17.39
2019-05-30T11:35:44.011Z,17.36
2019-05-30T11:37:52.985Z,17.34
2019-05-30T11:40:00.784Z,17.20
2019-05-30T11:42:08.405Z,17.10
2019-05-30T11:44:15.910Z,17.10
2019-05-30T11:46:23.569Z,17.01
2019-05-30T11:48:31.047Z,17.11
2019-05-30T11:50:38.611Z,17.18
2019-05-30T11:52:46.135Z,17.17
2019-05-30T11:54:54.168Z,17.01
2019-05-30T11:57:01.827Z,16.99
2019-05-30T11:59:09.284Z,17.13
2019-05-30T12:01:16.829Z,17.03
2019-05-30T12:03:24.471Z,17.28
2019-05-30T12:05:31.883Z,17.59
2019-05-30T12:07:39.501Z,17.26
2019-05-30T12:09:46.989Z,17.37
2019-05-30T12:11:55.184Z,17.37
2019-05-30T12:14:02.832Z,17.30
2019-05-30T12:16:11.543Z,17.30
2019-05-30T12:18:19.040Z,17.19
2019-05-30T12:20:26.958Z,17.12
2019-05-30T12:22:34.434Z,17.31
2019-05-30T12:24:42.051Z,17.31
2019-05-30T12:26:49.466Z,17.17
2019-05-30T12:28:58.064Z,17.14
2019-05-30T12:31:06.776Z,17.19
2019-05-30T12:33:14.528Z,17.11
2019-05-30T12:35:22.218Z,17.32
2019-05-30T12:37:29.901Z,17.38
2019-05-30T12:39:37.516Z,17.48
2019-05-30T12:41:45.083Z,17.41
2019-05-30T12:43:52.995Z,17.39
2019-05-30T12:46:01.254Z,17.45
2019-05-30T12:48:10.026Z,17.53
2019-05-30T12:50:18.384Z,17.46
2019-05-30T12:52:25.877Z,17.80
2019-05-30T12:54:33.423Z,17.66
2019-05-30T12:56:40.850Z,17.74
2019-05-30T12:58:48.346Z,17.97
2019-05-30T13:00:56.645Z,17.76
2019-05-30T13:03:04.446Z,17.86
2019-05-30T13:05:12.410Z,17.85
2019-05-30T13:07:19.937Z,18.20
2019-05-30T13:09:27.597Z,17.90
2019-05-30T13:11:35.108Z,17.80
2019-05-30T13:13:42.997Z,17.65
2019-05-30T13:15:50.625Z,17.62
2019-05-30T13:17:58.846Z,17.53
2019-05-30T13:20:07.850Z,17.50
2019-05-30T13:22:15.469Z,17.54
2019-05-30T13:24:23.277Z,17.55
2019-05-30T13:26:30.936Z,17.35
2019-05-30T13:28:38.650Z,17.30
2019-05-30T13:30:46.204Z,17.24
2019-05-30T13:32:54.547Z,17.17
2019-05-30T13:35:03.161Z,17.15
2019-05-30T13:37:11.303Z,17.22
2019-05-30T13:39:18.845Z,17.28
2019-05-30T13:41:26.445Z,17.23
2019-05-30T13:43:34.079Z,17.15
2019-05-30T13:45:41.900Z,17.17
2019-05-30T13:47:49.332Z,17.08
2019-05-30T13:49:56.736Z,16.99
2019-05-30T13:52:05.167Z,16.92
2019-05-30T13:54:13.169Z,16.90
2019-05-30T13:56:20.673Z,16.86
2019-05-30T13:58:28.082Z,16.89
2019-05-30T14:00:35.644Z,17.07
2019-05-30T14:02:43.974Z,17.10
2019-05-30T14:04:51.579Z,17.04
2019-05-30T14:07:00.047Z,17.12
2019-05-30T14:09:08.684Z,17.20
2019-05-30T14:11:16.099Z,17.30
2019-05-30T14:13:23.669Z,17.47
2019-05-30T14:15:34.099Z,17.68
2019-05-30T14:17:41.668Z,17.58
2019-05-30T14:19:49.187Z,17.58
2019-05-30T14:21:56.767Z,17.62
2019-05-30T14:24:05.311Z,17.73
2019-05-30T14:26:12.899Z,17.66
2019-05-30T14:28:20.341Z,17.63
2019-05-30T14:30:28.297Z,17.62
2019-05-30T14:32:35.846Z,17.65
2019-05-30T14:34:43.371Z,17.62
2019-05-30T14:36:50.862Z,17.60
2019-05-30T14:38:59.148Z,17.64
2019-05-30T14:41:07.121Z,17.61
2019-05-30T14:43:14.674Z,17.62
2019-05-30T14:45:27.637Z,17.47
2019-05-30T14:47:33.731Z,17.34
2019-05-30T14:49:41.158Z,17.33
2019-05-30T14:51:48.639Z,17.31
2019-05-30T14:53:56.254Z,17.36
2019-05-30T14:56:05.001Z,17.32
2019-05-30T14:58:13.367Z,17.35
2019-05-30T15:00:22.628Z,17.51
2019-05-30T15:02:30.477Z,17.44
2019-05-30T15:04:37.953Z,17.45
2019-05-30T15:06:45.547Z,17.39
2019-05-30T15:08:53.030Z,17.50
2019-05-30T15:11:00.588Z,17.44
2019-05-30T15:13:08.221Z,17.45
2019-05-30T15:15:18.751Z,17.35
2019-05-30T15:17:26.666Z,17.37
2019-05-30T15:19:34.099Z,17.33
2019-05-30T15:21:42.881Z,17.24
2019-05-30T15:23:50.340Z,17.26
2019-05-30T15:25:57.837Z,17.21
2019-05-30T15:28:06.008Z,17.17
2019-05-30T15:30:16.889Z,17.14
2019-05-30T15:32:24.633Z,17.04
2019-05-30T15:34:31.968Z,17.01
2019-05-30T15:36:39.405Z,16.98
2019-05-30T15:38:46.843Z,16.91
2019-05-30T15:40:54.265Z,16.90
2019-05-30T15:43:01.765Z,16.88
2019-05-30T15:45:11.928Z,16.84
2019-05-30T15:47:19.629Z,16.77
2019-05-30T15:49:27.155Z,16.72
2019-05-30T15:51:34.773Z,16.68
2019-05-30T15:53:42.319Z,16.62
2019-05-30T15:55:50.700Z,16.54
2019-05-30T15:57:59.136Z,16.53
2019-05-30T16:00:07.875Z,16.44
2019-05-30T16:02:16.122Z,16.46
2019-05-30T16:04:23.655Z,16.42
2019-05-30T16:06:31.177Z,16.41
2019-05-30T16:08:39.043Z,16.36
2019-05-30T16:10:46.588Z,16.41
2019-05-30T16:12:54.080Z,16.45
2019-05-30T16:15:01.628Z,16.30
2019-05-30T16:17:09.711Z,16.21
2019-05-30T16:19:23.319Z,16.14
2019-05-30T16:21:26.649Z,16.07
2019-05-30T16:23:34.464Z,16.09
2019-05-30T16:25:41.920Z,16.11
2019-05-30T16:27:49.915Z,16.06
2019-05-30T16:29:57.737Z,16.06
2019-05-30T16:32:05.434Z,15.98
2019-05-30T16:34:13.959Z,15.94
2019-05-30T16:36:22.502Z,15.92
2019-05-30T16:38:30.333Z,15.98
2019-05-30T16:40:38.117Z,15.93
2019-05-30T16:42:45.774Z,15.84
2019-05-30T16:44:53.570Z,15.91
2019-05-30T16:47:01.248Z,15.95
2019-05-30T16:49:09.187Z,15.95
2019-05-30T16:51:16.715Z,16.01
2019-05-30T16:53:25.881Z,16.05
2019-05-30T16:55:34.381Z,16.08
2019-05-30T16:57:41.927Z,16.11
2019-05-30T16:59:49.628Z,16.08
2019-05-30T17:01:58.500Z,16.13
2019-05-30T17:04:06.587Z,16.13
2019-05-30T17:06:15.809Z,16.12
2019-05-30T17:08:24.444Z,16.13
2019-05-30T17:10:33.364Z,16.10
2019-05-30T17:12:41.061Z,16.03
2019-05-30T17:14:48.678Z,15.99
2019-05-30T17:16:56.462Z,15.95
2019-05-30T17:19:03.954Z,15.98
2019-05-30T17:21:12.059Z,16.01
2019-05-30T17:23:20.628Z,15.96
2019-05-30T17:25:28.514Z,15.94
2019-05-30T17:27:37.125Z,15.92
2019-05-30T17:29:45.154Z,15.92
2019-05-30T17:31:52.831Z,15.90
2019-05-30T17:34:01.972Z,15.84
2019-05-30T17:36:11.974Z,15.77
2019-05-30T17:38:20.389Z,15.73
2019-05-30T17:40:41.225Z,15.52
2019-05-30T17:42:37.932Z,15.54
2019-05-30T17:44:45.607Z,15.45
2019-05-30T17:46:53.302Z,15.41
2019-05-30T17:49:01.103Z,15.50
2019-05-30T17:51:08.639Z,15.50
2019-05-30T17:53:16.267Z,15.48
2019-05-30T17:55:23.957Z,15.48
2019-05-30T17:57:32.084Z,15.42
2019-05-30T17:59:39.595Z,15.38
2019-05-30T18:01:47.234Z,15.35
2019-05-30T18:03:54.806Z,15.45
2019-05-30T18:06:02.507Z,15.40
2019-05-30T18:08:10.301Z,15.54
2019-05-30T18:10:18.345Z,15.44
2019-05-30T18:12:27.029Z,15.39
2019-05-30T18:14:34.737Z,15.36
2019-05-30T18:16:42.380Z,15.34
2019-05-30T18:18:49.856Z,15.31
2019-05-30T18:20:58.622Z,15.26
2019-05-30T18:23:06.657Z,15.31
2019-05-30T18:25:16.676Z,15.20
2019-05-30T18:27:25.851Z,15.17
2019-05-30T18:29:33.746Z,15.05
2019-05-30T18:31:41.371Z,15.00
2019-05-30T18:33:49.064Z,14.97
2019-05-30T18:35:57.022Z,14.96
2019-05-30T18:38:05.146Z,14.88
2019-05-30T18:40:15.060Z,14.85
2019-05-30T18:42:23.170Z,14.75
2019-05-30T18:44:32.814Z,14.67
2019-05-30T18:46:41.371Z,14.54
2019-05-30T18:48:49.561Z,14.44
2019-05-30T18:50:57.403Z,14.42
2019-05-30T18:53:06.100Z,14.27
2019-05-30T18:55:13.822Z,14.25
2019-05-30T18:57:21.884Z,14.22
2019-05-30T18:59:31.088Z,14.17
2019-05-30T19:01:39.503Z,14.13
2019-05-30T19:03:47.401Z,14.07
2019-05-30T19:05:56.330Z,14.02
2019-05-30T19:08:04.291Z,13.99
2019-05-30T19:10:12.130Z,13.87
2019-05-30T19:12:24.093Z,13.84
2019-05-30T19:14:32.478Z,13.76
2019-05-30T19:16:40.205Z,13.72
2019-05-30T19:18:47.897Z,13.61
2019-05-30T19:20:55.633Z,13.58
2019-05-30T19:23:03.649Z,13.48
2019-05-30T19:25:11.943Z,13.48
2019-05-30T19:27:19.686Z,13.38
2019-05-30T19:29:28.890Z,13.42
2019-05-30T19:31:37.050Z,13.41
2019-05-30T19:33:44.975Z,13.31
2019-05-30T19:35:52.569Z,13.28
2019-05-30T19:38:00.566Z,13.18
2019-05-30T19:40:09.529Z,13.17
2019-05-30T19:42:17.422Z,13.11
2019-05-30T19:44:25.240Z,13.13
2019-05-30T19:46:34.225Z,13.11
2019-05-30T19:48:42.268Z,13.07
2019-05-30T19:50:49.948Z,13.02
2019-05-30T19:52:57.607Z,12.99
2019-05-30T19:55:05.648Z,12.98
2019-05-30T19:57:13.163Z,13.02
2019-05-30T19:59:20.874Z,12.99
2019-05-30T20:01:29.692Z,12.96
2019-05-30T20:03:44.784Z,12.93
2019-05-30T20:05:46.770Z,12.95
2019-05-30T20:07:54.526Z,12.98
2019-05-30T20:10:02.243Z,12.91
2019-05-30T20:12:10.036Z,12.93
2019-05-30T20:14:17.641Z,12.89
2019-05-30T20:16:25.286Z,12.86
2019-05-30T20:18:33.550Z,12.82
2019-05-30T20:20:54.197Z,12.80
2019-05-30T20:22:50.916Z,12.76
2019-05-30T20:24:58.453Z,12.75
2019-05-30T20:27:06.182Z,12.72
2019-05-30T20:29:14.189Z,12.70
2019-05-30T20:31:22.138Z,12.67
2019-05-30T20:33:31.092Z,12.67
2019-05-30T20:35:40.073Z,12.62
2019-05-30T20:37:48.176Z,12.67
2019-05-30T20:39:55.790Z,12.68
2019-05-30T20:42:18.191Z,12.61
2019-05-30T20:44:13.213Z,12.53
2019-05-30T20:46:23.502Z,12.45
2019-05-30T20:48:30.347Z,12.39
2019-05-30T20:50:39.103Z,12.35
2019-05-30T20:52:47.653Z,12.36
2019-05-30T20:54:55.430Z,12.34
2019-05-30T20:57:03.176Z,12.53
2019-05-30T20:59:10.780Z,12.35
2019-05-30T21:01:18.407Z,12.27
2019-05-30T21:03:26.668Z,12.24
2019-05-30T21:05:35.663Z,12.29
2019-05-30T21:07:44.601Z,12.27
2019-05-30T21:09:55.063Z,12.17
2019-05-30T21:12:06.404Z,12.08
2019-05-30T21:14:16.528Z,12.11
2019-05-30T21:16:24.490Z,12.12
2019-05-30T21:18:32.242Z,12.07
2019-05-30T21:20:40.061Z,12.08
2019-05-30T21:22:47.743Z,12.06
2019-05-30T21:24:55.453Z,12.06
2019-05-30T21:27:03.096Z,12.03
2019-05-30T21:29:10.816Z,12.07
2019-05-30T21:31:18.470Z,11.93
2019-05-30T21:33:26.016Z,11.98
2019-05-30T21:35:33.846Z,11.98
2019-05-30T21:37:41.779Z,11.96
2019-05-30T21:39:49.496Z,11.92
2019-05-30T21:41:57.002Z,11.80
2019-05-30T21:44:04.660Z,11.81
2019-05-30T21:46:12.108Z,11.74
2019-05-30T21:48:19.654Z,11.80
2019-05-30T21:50:27.146Z,11.79
2019-05-30T21:52:35.787Z,11.84
2019-05-30T21:54:43.822Z,11.83
2019-05-30T21:56:51.469Z,11.78
2019-05-30T21:58:59.063Z,11.69
2019-05-30T22:01:35.039Z,11.63
2019-05-30T22:03:42.799Z,11.63
2019-05-30T22:05:51.960Z,11.69
2019-05-30T22:07:59.621Z,11.70
2019-05-30T22:10:07.752Z,11.74
2019-05-30T22:12:15.509Z,11.68
2019-05-30T22:14:23.109Z,11.67
2019-05-30T22:16:30.480Z,11.64
2019-05-30T22:18:38.176Z,11.53
2019-05-30T22:20:45.884Z,11.44
2019-05-30T22:22:53.431Z,11.42
2019-05-30T22:25:01.025Z,11.61
2019-05-30T22:27:08.530Z,11.64
2019-05-30T22:29:16.083Z,11.49
2019-05-30T22:31:23.630Z,11.47
2019-05-30T22:33:31.116Z,11.46
2019-05-30T22:35:38.854Z,11.45
2019-05-30T22:37:46.825Z,11.39
2019-05-30T22:39:54.827Z,11.42
2019-05-30T22:42:02.919Z,11.38
2019-05-30T22:44:10.637Z,11.31
2019-05-30T22:46:18.083Z,11.25
2019-05-30T22:48:25.698Z,11.29
2019-05-30T22:50:33.244Z,11.21
2019-05-30T22:52:40.711Z,11.16
2019-05-30T22:54:49.107Z,11.18
2019-05-30T22:56:56.687Z,11.14
2019-05-30T22:59:04.250Z,11.12
2019-05-30T23:01:11.704Z,11.12
2019-05-30T23:03:19.238Z,11.07
2019-05-30T23:05:26.739Z,11.11
2019-05-30T23:07:34.175Z,11.11
2019-05-30T23:09:41.727Z,11.12
2019-05-30T23:11:49.692Z,10.99
2019-05-30T23:13:58.308Z,10.99
2019-05-30T23:16:07.250Z,11.17
2019-05-30T23:18:17.437Z,11.05
2019-05-30T23:20:24.868Z,11.11
2019-05-30T23:22:32.502Z,11.09
2019-05-30T23:24:39.904Z,10.99
2019-05-30T23:26:47.478Z,10.98
2019-05-30T23:28:55.849Z,10.94
2019-05-30T23:31:03.271Z,10.95
2019-05-30T23:33:10.702Z,10.92
2019-05-30T23:35:18.316Z,10.82
2019-05-30T23:37:25.727Z,10.78
2019-05-30T23:39:33.147Z,10.78
2019-05-30T23:41:40.630Z,10.75
2019-05-30T23:43:57.968Z,10.67
2019-05-30T23:45:57.538Z,10.67
2019-05-30T23:48:05.274Z,10.57
2019-05-30T23:50:13.436Z,10.69
2019-05-30T23:52:20.842Z,10.58
2019-05-30T23:54:28.418Z,10.60
2019-05-30T23:56:35.972Z,10.58
2019-05-30T23:58:43.490Z,10.47
